createdAt,value
2019-06-10T00:01:12.650Z,4.57
2019-06-10T00:03:42.892Z,5.50
2019-06-10T00:06:13.178Z,5.10
2019-06-10T00:16:13.707Z,5.87
2019-06-10T00:18:45.711Z,11.13
2019-06-10T00:21:16.083Z,7.37
2019-06-10T00:23:46.348Z,5.97
2019-06-10T00:26:16.509Z,5.93
2019-06-10T00:28:51.282Z,5.17
2019-06-10T00:31:21.716Z,6.73
2019-06-10T00:33:52.098Z,5.80
2019-06-10T00:36:22.259Z,4.73
2019-06-10T00:38:52.521Z,6.77
2019-06-10T00:43:52.188Z,6.50
2019-06-10T00:48:53.192Z,5.00
2019-06-10T00:51:23.516Z,4.60
2019-06-10T00:56:24.866Z,13.63
2019-06-10T00:58:55.374Z,5.20
2019-06-10T01:01:25.885Z,7.95
2019-06-10T01:04:03.747Z,4.70
2019-06-10T01:09:04.538Z,5.70
2019-06-10T01:11:35.051Z,7.10
2019-06-10T01:20:32.449Z,4.05
2019-06-10T01:25:31.705Z,5.40
2019-06-10T01:33:01.936Z,5.93
2019-06-10T01:35:32.278Z,5.40
2019-06-10T01:38:03.519Z,4.60
2019-06-10T01:40:33.697Z,4.43
2019-06-10T01:43:04.040Z,6.65
2019-06-10T01:48:07.014Z,15.07
2019-06-10T01:50:37.279Z,30.95
2019-06-10T01:53:07.611Z,14.90
2019-06-10T01:58:08.003Z,34.45
2019-06-10T02:00:50.741Z,57.90
2019-06-10T02:03:23.842Z,34.47
2019-06-10T02:05:53.112Z,9.10
2019-06-10T02:08:23.286Z,13.00
2019-06-10T02:10:54.957Z,29.13
2019-06-10T02:13:33.224Z,10.87
2019-06-10T02:16:03.300Z,14.40
2019-06-10T02:18:33.603Z,36.47
2019-06-10T02:21:04.179Z,31.70
2019-06-10T02:23:35.407Z,19.63
2019-06-10T02:26:05.769Z,14.30
2019-06-10T02:28:35.935Z,10.20
2019-06-10T02:31:06.072Z,16.05
2019-06-10T02:33:36.894Z,9.50
2019-06-10T02:36:07.376Z,13.20
2019-06-10T02:43:40.001Z,11.50
2019-06-10T02:46:13.117Z,10.90
2019-06-10T02:51:15.841Z,9.60
2019-06-10T02:53:46.301Z,10.40
2019-06-10T02:56:17.724Z,9.10
2019-06-10T02:58:53.456Z,8.20
2019-06-10T03:01:32.169Z,9.03
2019-06-10T03:03:55.738Z,9.47
2019-06-10T03:06:35.107Z,16.43
2019-06-10T03:08:58.065Z,11.80
2019-06-10T03:11:33.518Z,8.10
2019-06-10T03:14:02.604Z,9.23
2019-06-10T03:16:53.072Z,8.17
2019-06-10T03:19:40.937Z,8.13
2019-06-10T03:21:55.389Z,8.80
2019-06-10T03:24:25.949Z,17.23
2019-06-10T03:26:56.143Z,8.13
2019-06-10T03:29:28.057Z,8.63
2019-06-10T03:31:58.482Z,8.43
2019-06-10T03:34:36.317Z,18.20
2019-06-10T03:37:02.466Z,10.90
2019-06-10T03:39:32.964Z,43.20
2019-06-10T03:42:03.222Z,29.47
2019-06-10T03:44:33.486Z,15.90
2019-06-10T03:47:03.813Z,14.20
2019-06-10T03:49:48.749Z,11.13
2019-06-10T03:52:05.889Z,14.57
2019-06-10T03:54:36.140Z,10.57
2019-06-10T03:57:06.317Z,9.53
2019-06-10T03:59:36.491Z,9.63
2019-06-10T04:02:06.656Z,11.17
2019-06-10T04:04:36.887Z,12.00
2019-06-10T04:07:07.107Z,9.43
2019-06-10T04:09:37.654Z,12.23
2019-06-10T04:12:07.775Z,8.60
2019-06-10T04:14:37.939Z,9.70
2019-06-10T04:17:08.026Z,8.67
2019-06-10T04:19:38.215Z,10.07
2019-06-10T04:22:08.382Z,14.00
2019-06-10T04:24:38.507Z,6.83
2019-06-10T04:35:44.322Z,8.43
2019-06-10T04:38:14.777Z,7.30
2019-06-10T04:40:44.935Z,6.67
2019-06-10T04:43:15.101Z,7.33
2019-06-10T04:45:46.762Z,6.63
2019-06-10T04:48:16.910Z,6.77
2019-06-10T04:50:47.078Z,7.73
2019-06-10T04:53:17.228Z,8.40
2019-06-10T04:55:47.422Z,7.43
2019-06-10T05:01:02.802Z,19.50
2019-06-10T05:08:34.109Z,9.73
2019-06-10T05:11:05.573Z,6.60
2019-06-10T05:13:36.087Z,6.90
2019-06-10T05:16:06.429Z,6.93
2019-06-10T05:18:36.575Z,5.77
2019-06-10T05:21:06.943Z,6.23
2019-06-10T05:23:37.064Z,6.23
2019-06-10T05:26:07.212Z,6.93
2019-06-10T05:28:37.308Z,6.70
2019-06-10T05:31:07.543Z,6.10
2019-06-10T05:33:37.828Z,6.10
2019-06-10T05:36:07.970Z,10.60
2019-06-10T05:38:38.222Z,5.12
2019-06-10T05:41:08.385Z,6.60
2019-06-10T05:43:39.838Z,4.97
2019-06-10T05:46:10.042Z,5.35
2019-06-10T05:48:40.266Z,5.20
2019-06-10T05:51:12.380Z,4.80
2019-06-10T05:53:45.725Z,5.07
2019-06-10T05:56:14.327Z,5.63
2019-06-10T05:58:45.744Z,4.67
2019-06-10T06:01:15.911Z,4.95
2019-06-10T06:03:46.047Z,6.43
2019-06-10T06:06:16.217Z,7.90
2019-06-10T06:08:46.367Z,4.60
2019-06-10T06:11:16.524Z,4.43
2019-06-10T06:13:46.790Z,15.87
2019-06-10T06:16:18.108Z,4.37
2019-06-10T06:18:48.850Z,4.70
2019-06-10T06:21:26.777Z,7.50
2019-06-10T06:23:52.765Z,5.57
2019-06-10T06:26:26.241Z,5.93
2019-06-10T06:28:56.612Z,6.60
2019-06-10T06:31:28.138Z,10.43
2019-06-10T06:33:58.331Z,5.90
2019-06-10T06:36:28.695Z,5.97
2019-06-10T06:38:58.863Z,5.40
2019-06-10T06:41:29.523Z,4.90
2019-06-10T06:44:02.140Z,5.47
2019-06-10T06:46:36.586Z,4.60
2019-06-10T06:49:06.949Z,4.22
2019-06-10T06:51:49.529Z,6.73
2019-06-10T06:54:12.479Z,4.28
2019-06-10T06:56:43.781Z,3.75
2019-06-10T06:59:14.182Z,5.13
2019-06-10T07:01:44.685Z,3.43
2019-06-10T07:04:15.010Z,5.87
2019-06-10T07:06:45.234Z,3.13
2019-06-10T07:09:16.151Z,2.70
2019-06-10T07:11:47.481Z,5.50
2019-06-10T07:14:23.877Z,3.50
2019-06-10T07:16:54.564Z,2.57
2019-06-10T07:19:25.037Z,4.93
2019-06-10T07:22:08.698Z,3.90
2019-06-10T07:24:27.253Z,2.83
2019-06-10T07:26:57.457Z,2.83
2019-06-10T07:29:27.704Z,8.13
2019-06-10T07:31:58.015Z,5.10
2019-06-10T07:34:28.199Z,2.40
2019-06-10T07:36:58.371Z,4.00
2019-06-10T07:39:28.666Z,4.40
2019-06-10T07:41:59.007Z,5.97
2019-06-10T07:44:29.253Z,11.10
2019-06-10T07:46:59.483Z,9.00
2019-06-10T07:49:32.155Z,4.05
2019-06-10T07:52:15.024Z,4.97
2019-06-10T07:54:34.812Z,5.23
2019-06-10T07:57:06.191Z,7.40
2019-06-10T07:59:37.393Z,4.43
2019-06-10T08:02:12.383Z,2.97
2019-06-10T08:04:45.767Z,4.83
2019-06-10T08:07:14.915Z,6.25
2019-06-10T08:09:45.885Z,3.05
2019-06-10T08:12:19.244Z,4.50
2019-06-10T08:19:50.862Z,2.63
2019-06-10T08:32:20.040Z,4.00
2019-06-10T08:34:52.849Z,2.97
2019-06-10T08:37:23.360Z,3.80
2019-06-10T08:39:53.893Z,3.43
2019-06-10T08:42:24.304Z,4.90
2019-06-10T08:44:54.903Z,5.10
2019-06-10T08:47:25.354Z,6.03
2019-06-10T08:49:55.526Z,3.90
2019-06-10T08:52:25.785Z,5.13
2019-06-10T08:54:56.634Z,3.03
2019-06-10T08:57:27.169Z,6.10
2019-06-10T09:00:04.043Z,3.60
2019-06-10T09:07:34.074Z,8.40
2019-06-10T09:10:05.043Z,3.20
2019-06-10T09:12:36.731Z,4.65
2019-06-10T09:22:35.735Z,3.80
2019-06-10T09:25:06.078Z,5.93
2019-06-10T09:30:06.949Z,5.60
2019-06-10T09:35:08.735Z,2.90
2019-06-10T09:40:12.325Z,2.30
2019-06-10T09:55:23.790Z,2.90
2019-06-10T09:57:59.730Z,2.25
2019-06-10T10:03:04.909Z,1.90
2019-06-10T10:05:35.651Z,1.95
2019-06-10T10:08:06.584Z,1.87
2019-06-10T10:10:38.719Z,2.20
2019-06-10T10:13:10.030Z,3.25
2019-06-10T10:15:41.857Z,3.75
2019-06-10T10:18:13.972Z,1.50
2019-06-10T10:20:48.156Z,2.47
2019-06-10T10:23:18.821Z,3.83
2019-06-10T10:25:52.442Z,1.25
2019-06-10T10:28:25.470Z,1.97
2019-06-10T10:30:57.764Z,1.40
2019-06-10T10:33:30.252Z,3.20
2019-06-10T10:36:02.585Z,5.25
2019-06-10T10:38:34.521Z,3.43
2019-06-10T10:41:05.345Z,1.77
2019-06-10T10:43:37.722Z,1.73
2019-06-10T10:46:08.436Z,1.87
2019-06-10T10:48:40.043Z,3.83
2019-06-10T10:51:13.655Z,2.72
2019-06-10T10:53:49.015Z,1.20
2019-06-10T10:56:17.893Z,2.58
2019-06-10T10:58:49.231Z,2.98
2019-06-10T11:01:23.194Z,30.75
2019-06-10T11:03:58.748Z,10.43
2019-06-10T11:06:25.298Z,1.75
2019-06-10T11:08:57.817Z,7.30
2019-06-10T11:11:28.939Z,5.87
2019-06-10T11:14:03.308Z,3.73
2019-06-10T11:16:33.198Z,2.70
2019-06-10T11:19:03.989Z,3.90
2019-06-10T11:21:35.770Z,3.23
2019-06-10T11:24:07.090Z,5.90
2019-06-10T11:26:37.644Z,12.23
2019-06-10T11:29:08.827Z,6.30
2019-06-10T11:31:39.144Z,5.47
2019-06-10T11:34:09.493Z,6.40
2019-06-10T11:36:42.440Z,6.13
2019-06-10T11:39:13.332Z,1.63
2019-06-10T11:41:43.841Z,2.20
2019-06-10T11:44:14.731Z,4.63
2019-06-10T11:46:45.154Z,9.77
2019-06-10T11:49:15.723Z,4.20
2019-06-10T11:51:47.149Z,3.73
2019-06-10T11:54:17.632Z,3.97
2019-06-10T11:56:54.594Z,6.20
2019-06-10T11:59:23.842Z,5.53
2019-06-10T12:01:57.654Z,3.23
2019-06-10T12:04:26.298Z,4.73
2019-06-10T12:06:57.057Z,3.10
2019-06-10T12:09:27.660Z,4.03
2019-06-10T12:12:02.273Z,5.07
2019-06-10T12:14:33.734Z,3.27
2019-06-10T12:17:40.076Z,11.67
2019-06-10T12:19:36.286Z,4.90
2019-06-10T12:22:07.870Z,9.50
2019-06-10T12:24:43.173Z,7.10
2019-06-10T12:27:13.231Z,5.73
2019-06-10T12:29:43.571Z,8.03
2019-06-10T12:32:13.960Z,8.13
2019-06-10T12:34:46.323Z,4.97
2019-06-10T12:37:16.306Z,8.83
2019-06-10T12:39:46.589Z,5.40
2019-06-10T12:42:22.281Z,6.17
2019-06-10T12:44:59.366Z,8.07
2019-06-10T12:47:33.161Z,6.53
2019-06-10T12:50:04.160Z,13.60
2019-06-10T12:52:34.860Z,8.40
2019-06-10T12:55:06.262Z,10.27
2019-06-10T12:57:36.591Z,3.80
2019-06-10T13:00:19.354Z,5.07
2019-06-10T13:02:42.599Z,12.27
2019-06-10T13:05:12.764Z,5.43
2019-06-10T13:07:43.072Z,3.37
2019-06-10T13:10:15.249Z,7.20
2019-06-10T13:12:48.806Z,6.80
2019-06-10T13:15:17.945Z,5.03
2019-06-10T13:17:53.647Z,3.55
2019-06-10T13:20:22.900Z,9.83
2019-06-10T13:22:54.413Z,4.43
2019-06-10T13:25:25.141Z,10.13
2019-06-10T13:27:55.701Z,4.97
2019-06-10T13:30:26.704Z,3.80
2019-06-10T13:32:59.564Z,4.20
2019-06-10T13:35:29.111Z,5.00
2019-06-10T13:38:01.599Z,10.63
2019-06-10T13:40:32.213Z,10.58
2019-06-10T13:43:03.858Z,8.73
2019-06-10T13:45:35.635Z,6.95
2019-06-10T13:48:08.447Z,9.63
2019-06-10T13:50:38.066Z,11.20
2019-06-10T13:53:10.437Z,10.50
2019-06-10T13:55:40.954Z,10.47
2019-06-10T13:58:14.462Z,8.73
2019-06-10T14:00:46.760Z,5.20
2019-06-10T14:03:16.405Z,5.33
2019-06-10T14:05:47.016Z,18.47
2019-06-10T14:08:17.239Z,14.60
2019-06-10T14:10:47.571Z,13.10
2019-06-10T14:13:18.359Z,13.03
2019-06-10T14:15:52.999Z,11.03
2019-06-10T14:18:23.190Z,15.70
2019-06-10T14:20:53.807Z,9.40
2019-06-10T14:23:24.230Z,9.43
2019-06-10T14:25:54.607Z,4.93
2019-06-10T14:28:40.118Z,5.43
2019-06-10T14:30:56.990Z,10.80
2019-06-10T14:33:27.343Z,6.00
2019-06-10T14:36:00.648Z,10.60
2019-06-10T14:38:32.750Z,13.37
2019-06-10T14:41:04.962Z,16.17
2019-06-10T14:43:35.531Z,11.60
2019-06-10T14:46:07.382Z,7.60
2019-06-10T14:48:38.453Z,10.00
2019-06-10T14:51:08.959Z,10.90
2019-06-10T14:53:39.191Z,8.30
2019-06-10T14:56:12.891Z,4.77
2019-06-10T14:58:43.815Z,13.97
2019-06-10T15:01:24.157Z,6.60
2019-06-10T15:03:46.770Z,17.13
2019-06-10T15:06:17.278Z,6.43
2019-06-10T15:08:48.015Z,10.20
2019-06-10T15:11:18.534Z,4.80
2019-06-10T15:13:48.831Z,7.90
2019-06-10T15:16:23.753Z,7.23
2019-06-10T15:18:53.941Z,11.20
2019-06-10T15:21:24.668Z,4.97
2019-06-10T15:23:56.400Z,9.73
2019-06-10T15:26:26.785Z,7.50
2019-06-10T15:28:57.345Z,8.23
2019-06-10T15:31:27.782Z,6.97
2019-06-10T15:33:58.242Z,8.13
2019-06-10T15:36:32.653Z,4.43
2019-06-10T15:39:04.155Z,5.03
2019-06-10T15:41:35.632Z,5.13
2019-06-10T15:44:06.429Z,7.73
2019-06-10T15:46:36.815Z,6.03
2019-06-10T15:49:07.095Z,4.93
2019-06-10T15:51:37.405Z,7.30
2019-06-10T15:54:17.044Z,6.62
2019-06-10T15:56:52.683Z,5.80
2019-06-10T15:59:25.143Z,3.63
2019-06-10T16:02:02.397Z,3.83
2019-06-10T16:04:35.147Z,7.17
2019-06-10T16:07:04.952Z,6.87
2019-06-10T16:09:35.641Z,5.40
2019-06-10T16:12:06.421Z,4.73
2019-06-10T16:14:37.055Z,14.13
2019-06-10T16:17:08.193Z,5.58
2019-06-10T16:19:43.207Z,3.57
2019-06-10T16:22:14.491Z,3.77
2019-06-10T16:24:47.132Z,4.25
2019-06-10T16:27:17.954Z,6.03
2019-06-10T16:29:49.045Z,6.93
2019-06-10T16:32:20.581Z,7.60
2019-06-10T16:34:52.241Z,10.10
2019-06-10T16:37:25.049Z,8.25
2019-06-10T16:39:54.768Z,4.85
2019-06-10T16:42:26.198Z,4.80
2019-06-10T16:44:57.526Z,6.63
2019-06-10T16:47:27.888Z,7.67
2019-06-10T16:49:58.529Z,8.00
2019-06-10T16:52:30.342Z,6.03
2019-06-10T16:55:02.225Z,9.10
2019-06-10T16:57:33.435Z,9.00
2019-06-10T17:00:11.327Z,4.47
2019-06-10T17:02:36.910Z,9.37
2019-06-10T17:05:07.696Z,9.93
2019-06-10T17:07:39.612Z,5.53
2019-06-10T17:10:12.565Z,6.03
2019-06-10T17:12:42.771Z,9.63
2019-06-10T17:15:13.785Z,5.97
2019-06-10T17:17:44.247Z,5.12
2019-06-10T17:20:15.118Z,20.47
2019-06-10T17:22:45.740Z,5.83
2019-06-10T17:25:16.225Z,5.00
2019-06-10T17:27:46.875Z,4.27
2019-06-10T17:30:17.584Z,8.47
2019-06-10T17:32:48.252Z,5.67
2019-06-10T17:35:19.992Z,5.80
2019-06-10T17:37:52.304Z,4.72
2019-06-10T17:40:26.450Z,5.40
2019-06-10T17:42:57.848Z,4.77
2019-06-10T17:45:29.388Z,6.73
2019-06-10T17:48:02.970Z,7.90
2019-06-10T17:50:34.035Z,5.57
2019-06-10T17:53:05.008Z,6.97
2019-06-10T17:55:35.706Z,5.63
2019-06-10T17:58:07.545Z,5.87
2019-06-10T18:00:37.982Z,18.33
2019-06-10T18:03:08.530Z,7.30
2019-06-10T18:05:38.846Z,8.40
2019-06-10T18:08:09.388Z,6.07
2019-06-10T18:10:40.065Z,8.13
2019-06-10T18:13:16.247Z,7.77
2019-06-10T18:15:43.186Z,6.43
2019-06-10T18:18:16.665Z,7.13
2019-06-10T18:20:48.096Z,5.53
2019-06-10T18:23:18.654Z,11.60
2019-06-10T18:25:49.105Z,8.77
2019-06-10T18:28:22.628Z,6.07
2019-06-10T18:30:53.523Z,4.77
2019-06-10T18:33:25.525Z,7.70
2019-06-10T18:35:57.235Z,9.30
2019-06-10T18:38:29.403Z,5.40
2019-06-10T18:41:02.990Z,6.90
2019-06-10T18:43:35.099Z,7.63
2019-06-10T18:46:07.046Z,6.30
2019-06-10T18:48:38.590Z,7.17
2019-06-10T18:51:12.468Z,8.23
2019-06-10T18:53:44.290Z,14.23
2019-06-10T18:56:17.323Z,13.00
2019-06-10T18:58:47.922Z,7.67
2019-06-10T19:01:18.377Z,5.30
2019-06-10T19:03:49.222Z,8.40
2019-06-10T19:06:20.129Z,7.97
2019-06-10T19:08:53.059Z,17.93
2019-06-10T19:11:23.732Z,6.23
2019-06-10T19:13:55.944Z,5.87
2019-06-10T19:16:26.689Z,8.78
2019-06-10T19:18:57.299Z,6.43
2019-06-10T19:21:28.244Z,6.93
2019-06-10T19:23:59.689Z,11.27
2019-06-10T19:26:33.966Z,10.70
2019-06-10T19:29:04.554Z,7.50
2019-06-10T19:31:38.108Z,6.80
2019-06-10T19:34:07.971Z,6.80
2019-06-10T19:36:39.628Z,7.30
2019-06-10T19:39:13.131Z,7.13
2019-06-10T19:41:46.988Z,10.00
2019-06-10T19:44:15.921Z,10.33
2019-06-10T19:46:46.847Z,9.93
2019-06-10T19:49:18.080Z,8.30
2019-06-10T19:51:49.306Z,14.17
2019-06-10T19:54:20.192Z,10.93
2019-06-10T19:56:52.375Z,8.57
2019-06-10T19:59:23.283Z,12.20
2019-06-10T20:01:55.371Z,11.40
2019-06-10T20:04:26.749Z,12.70
2019-06-10T20:06:58.325Z,9.40
2019-06-10T20:09:29.264Z,10.20
2019-06-10T20:12:02.031Z,9.47
2019-06-10T20:14:34.380Z,8.23
2019-06-10T20:17:05.646Z,9.33
2019-06-10T20:19:36.252Z,9.50
2019-06-10T20:22:07.322Z,7.70
2019-06-10T20:24:41.314Z,10.80
2019-06-10T20:27:11.991Z,8.30
2019-06-10T20:29:44.274Z,10.60
2019-06-10T20:32:16.581Z,12.47
2019-06-10T20:34:48.030Z,10.27
2019-06-10T20:37:22.547Z,9.67
2019-06-10T20:39:53.917Z,11.17
2019-06-10T20:42:25.314Z,15.77
2019-06-10T20:44:55.960Z,13.07
2019-06-10T20:47:27.116Z,13.85
2019-06-10T20:50:02.679Z,15.63
2019-06-10T20:52:33.204Z,15.43
2019-06-10T20:55:04.352Z,14.37
2019-06-10T20:57:49.980Z,13.53
2019-06-10T21:00:22.142Z,15.77
2019-06-10T21:02:45.872Z,11.87
2019-06-10T21:05:17.449Z,12.13
2019-06-10T21:07:51.487Z,11.53
2019-06-10T21:10:24.273Z,17.57
2019-06-10T21:12:54.606Z,16.47
2019-06-10T21:15:25.249Z,13.67
2019-06-10T21:17:55.501Z,15.30
2019-06-10T21:20:25.883Z,16.20
2019-06-10T21:22:56.521Z,14.90
2019-06-10T21:25:26.903Z,12.97
2019-06-10T21:27:57.407Z,13.03
2019-06-10T21:30:40.703Z,15.07
2019-06-10T21:33:03.570Z,13.27
2019-06-10T21:35:34.516Z,12.60
2019-06-10T21:38:05.034Z,11.33
2019-06-10T21:40:35.250Z,11.35
2019-06-10T21:43:05.552Z,10.90
2019-06-10T21:45:36.139Z,16.30
2019-06-10T21:48:07.226Z,13.20
2019-06-10T21:50:37.621Z,12.30
2019-06-10T21:53:08.167Z,11.53
2019-06-10T21:55:38.438Z,14.00
2019-06-10T21:58:08.632Z,12.20
2019-06-10T22:00:55.644Z,14.53
2019-06-10T22:03:20.341Z,17.33
2019-06-10T22:05:51.663Z,12.15
2019-06-10T22:08:21.945Z,13.17
2019-06-10T22:10:54.558Z,7.43
2019-06-10T22:13:24.088Z,4.30
2019-06-10T22:15:56.711Z,4.90
2019-06-10T22:18:28.016Z,5.80
2019-06-10T22:20:58.344Z,5.63
2019-06-10T22:23:28.620Z,7.43
2019-06-10T22:26:02.775Z,4.93
2019-06-10T22:28:33.041Z,4.37
2019-06-10T22:31:19.628Z,4.80
2019-06-10T22:33:36.913Z,5.70
2019-06-10T22:36:07.330Z,4.20
2019-06-10T22:38:37.695Z,7.00
2019-06-10T22:41:12.296Z,4.08
2019-06-10T22:43:42.774Z,6.47
2019-06-10T22:46:13.122Z,6.60
2019-06-10T22:48:43.399Z,4.50
2019-06-10T22:51:13.567Z,5.80
2019-06-10T22:53:43.853Z,5.90
2019-06-10T22:56:14.055Z,6.00
2019-06-10T22:58:44.228Z,5.03
2019-06-10T23:01:30.536Z,4.70
2019-06-10T23:03:48.066Z,5.10
2019-06-10T23:06:18.534Z,3.93
2019-06-10T23:08:48.840Z,3.80
2019-06-10T23:11:19.058Z,6.33
2019-06-10T23:13:51.260Z,5.40
2019-06-10T23:16:22.473Z,7.10
2019-06-10T23:18:54.019Z,4.07
2019-06-10T23:21:25.009Z,7.63
2019-06-10T23:23:56.727Z,4.00
2019-06-10T23:26:27.314Z,6.70
2019-06-10T23:28:58.778Z,4.93
2019-06-10T23:31:29.548Z,6.33
2019-06-10T23:34:02.088Z,7.13
2019-06-10T23:36:32.694Z,4.10
2019-06-10T23:39:03.953Z,9.00
2019-06-10T23:41:34.484Z,4.50
2019-06-10T23:44:06.410Z,5.33
2019-06-10T23:46:36.585Z,4.53
2019-06-10T23:49:06.715Z,4.63
2019-06-10T23:51:37.310Z,4.70
2019-06-10T23:54:07.452Z,3.97
2019-06-10T23:56:40.148Z,4.73
2019-06-10T23:59:12.074Z,4.97
